Time;durP1;ratioP1;P1;durP2;ratioP2;P2;SDS_P1;SDS_P2;PMS_P1;PMS_P2;Temp;Humidity;BMP_temperature;BMP_pressure;BME280_temperature;BME280_humidity;BME280_pressure;Samples;Min_cycle;Max_cycle;Signal;HPM_P1;HPM_P2
2023/08/08 00:02:06;;;;;;;;;4.00;4.00;;;;;18.07;85.35;101752.03;5098832;27;48895;-74
2023/08/08 00:04:31;;;;;;;;;5.33;5.33;;;;;18.09;87.03;101760.84;5088685;27;45327;-74
2023/08/08 00:06:57;;;;;;;;;6.00;5.00;;;;;18.02;85.95;101753.28;5097242;27;51774;-75
2023/08/08 00:09:22;;;;;;;;;6.00;4.67;;;;;18.02;86.57;101756.81;5092991;27;46057;-75
2023/08/08 00:11:48;;;;;;;;;4.00;4.00;;;;;18.00;86.53;101758.72;5095831;27;45277;-74
2023/08/08 00:14:14;;;;;;;;;3.67;3.33;;;;;17.95;86.26;101755.47;5074711;27;45406;-74
2023/08/08 00:16:39;;;;;;;;;5.00;3.67;;;;;17.95;88.16;101758.16;5081876;27;45509;-74
2023/08/08 00:19:04;;;;;;;;;4.00;4.00;;;;;17.92;88.64;101758.34;5090398;27;46191;-74
2023/08/08 00:21:30;;;;;;;;;6.33;4.00;;;;;17.82;88.23;101746.50;5086616;27;45227;-74
2023/08/08 00:23:55;;;;;;;;;3.67;3.67;;;;;17.73;88.75;101738.19;5100360;27;45422;-74
2023/08/08 00:26:21;;;;;;;;;2.00;2.00;;;;;17.70;89.55;101745.44;5100778;27;45200;-74
2023/08/08 00:28:46;;;;;;;;;4.00;4.00;;;;;17.64;89.37;101739.59;5094660;27;46374;-75
2023/08/08 00:31:11;;;;;;;;;4.00;4.00;;;;;17.65;88.59;101742.19;5091411;27;45272;-74
2023/08/08 00:33:37;;;;;;;;;3.67;3.67;;;;;17.60;90.09;101740.75;5101037;27;45264;-75
2023/08/08 00:36:02;;;;;;;;;3.33;3.33;;;;;17.60;89.34;101744.28;5097006;27;45264;-74
2023/08/08 00:38:28;;;;;;;;;6.33;3.00;;;;;17.56;90.73;101739.22;5094040;27;46111;-75
2023/08/08 00:40:53;;;;;;;;;3.67;3.67;;;;;17.46;91.48;101730.88;5087703;27;45249;-74
2023/08/08 00:43:18;;;;;;;;;3.00;3.00;;;;;17.50;92.39;101739.56;5097099;27;45204;-75
2023/08/08 00:45:44;;;;;;;;;4.00;4.00;;;;;17.42;90.92;101723.13;5085332;27;45218;-75
2023/08/08 00:48:11;;;;;;;;;4.00;4.00;;;;;17.35;92.70;101721.75;5084006;27;46172;-74
2023/08/08 00:50:37;;;;;;;;;3.67;3.67;;;;;17.38;91.27;101726.91;5086422;27;45522;-75
2023/08/08 00:53:04;;;;;;;;;6.33;5.00;;;;;17.36;91.11;101716.34;5086807;27;45465;-74
2023/08/08 00:55:31;;;;;;;;;4.33;4.00;;;;;17.35;93.72;101719.09;5062918;27;45553;-75
2023/08/08 00:57:56;;;;;;;;;5.00;3.33;;;;;17.34;92.27;101720.06;5087032;27;46078;-75
2023/08/08 01:00:22;;;;;;;;;4.67;4.00;;;;;17.28;94.64;101715.06;5085788;27;45222;-75
2023/08/08 01:02:47;;;;;;;;;4.33;4.33;;;;;17.31;94.79;101717.56;5082804;27;45323;-74
2023/08/08 01:05:12;;;;;;;;;5.00;5.00;;;;;17.22;95.47;101710.09;5080923;27;54530;-74
2023/08/08 01:07:59;;;;;;;;;6.67;4.00;;;;;17.26;94.27;101725.88;5081110;27;45360;-74
2023/08/08 01:10:28;;;;;;;;;3.33;3.33;;;;;17.24;94.69;101716.22;5077564;27;45336;-75
2023/08/08 01:12:59;;;;;;;;;5.00;3.33;;;;;17.24;95.43;101713.53;5088703;27;45477;-74
2023/08/08 01:15:25;;;;;;;;;6.00;5.00;;;;;17.23;96.07;101715.34;5099671;27;45453;-74
2023/08/08 01:17:52;;;;;;;;;4.33;3.33;;;;;17.22;96.36;101712.75;5089330;27;46182;-75
2023/08/08 01:20:18;;;;;;;;;5.33;4.33;;;;;17.17;95.84;101719.28;5087685;27;45298;-74
2023/08/08 01:22:59;;;;;;;;;5.33;5.00;;;;;17.04;95.54;101704.06;5100383;27;45366;-74
2023/08/08 01:25:25;;;;;;;;;3.33;3.00;;;;;17.15;97.11;101722.97;5090311;27;45505;-74
2023/08/08 01:27:50;;;;;;;;;6.67;5.00;;;;;17.15;96.38;101722.97;5098662;27;46453;-74
2023/08/08 01:30:15;;;;;;;;;5.67;4.00;;;;;17.18;97.15;101722.78;5080683;27;45575;-75
2023/08/08 01:32:41;;;;;;;;;4.33;4.33;;;;;17.16;96.26;101720.22;5092555;27;45296;-74
2023/08/08 01:35:07;;;;;;;;;6.00;3.67;;;;;17.12;96.98;101712.44;5080439;27;45505;-74
2023/08/08 01:37:40;;;;;;;;;2.67;2.67;;;;;17.17;97.53;101716.59;5090043;27;46519;-74
2023/08/08 01:40:06;;;;;;;;;3.33;3.33;;;;;17.21;94.18;101717.28;5086615;27;45423;-74
2023/08/08 01:42:32;;;;;;;;;6.00;4.00;;;;;17.24;98.26;101718.91;5090051;27;45669;-74
2023/08/08 01:44:57;;;;;;;;;5.00;3.33;;;;;17.24;97.96;101709.06;5077675;27;45537;-74
2023/08/08 01:47:23;;;;;;;;;3.33;3.33;;;;;17.20;95.34;101704.84;5096481;27;45477;-74
2023/08/08 01:49:48;;;;;;;;;3.00;3.00;;;;;17.28;93.20;101723.94;5098487;27;45488;-75
2023/08/08 01:52:13;;;;;;;;;3.00;3.00;;;;;17.30;94.10;101730.09;5092107;27;45576;-74
2023/08/08 01:54:39;;;;;;;;;3.33;3.33;;;;;17.31;95.70;101722.94;5084428;27;45351;-74
2023/08/08 01:57:04;;;;;;;;;1.67;1.33;;;;;17.31;96.77;101721.09;5087355;27;45484;-74
2023/08/08 01:59:30;;;;;;;;;4.00;3.00;;;;;17.31;95.30;101718.41;5095295;27;45387;-74
2023/08/08 02:01:55;;;;;;;;;3.00;3.00;;;;;17.36;94.75;101720.81;5090754;27;45550;-74
2023/08/08 02:04:20;;;;;;;;;2.67;2.67;;;;;17.37;93.61;101718.06;5096905;27;45267;-74
2023/08/08 02:06:46;;;;;;;;;4.00;4.00;;;;;17.37;92.51;101703.81;5079878;27;45489;-74
2023/08/08 02:09:13;;;;;;;;;3.00;3.00;;;;;17.38;94.91;101703.72;5074049;27;45304;-74
2023/08/08 02:11:39;;;;;;;;;3.67;3.67;;;;;17.32;95.38;101693.41;5065956;27;45526;-74
2023/08/08 02:14:04;;;;;;;;;4.00;4.00;;;;;17.32;96.62;101689.88;5089862;27;45276;-75
2023/08/08 02:16:29;;;;;;;;;3.67;3.00;;;;;17.32;97.68;101687.19;5088333;27;45453;-74
2023/08/08 02:18:55;;;;;;;;;3.00;3.00;;;;;17.25;98.59;101683.16;5089061;27;55226;-74
2023/08/08 02:21:20;;;;;;;;;5.00;4.00;;;;;17.27;97.85;101702.66;5093616;27;45601;-75
2023/08/08 02:23:45;;;;;;;;;3.00;3.00;;;;;17.21;98.49;101701.22;5090562;27;45597;-74
2023/08/08 02:26:10;;;;;;;;;4.00;4.00;;;;;17.18;97.25;101694.22;5079848;27;45486;-74
2023/08/08 02:28:36;;;;;;;;;2.67;2.67;;;;;17.17;97.14;101689.88;5080178;27;45800;-74
2023/08/08 02:31:01;;;;;;;;;6.33;4.00;;;;;17.13;97.95;101680.31;5099116;27;46421;-74
2023/08/08 02:33:26;;;;;;;;;2.33;2.33;;;;;17.14;98.23;101682.03;5088376;27;45284;-75
2023/08/08 02:35:52;;;;;;;;;3.00;3.00;;;;;17.03;98.45;101668.44;5065133;27;47431;-74
2023/08/08 02:38:17;;;;;;;;;3.00;3.00;;;;;17.08;99.05;101687.72;5092593;27;45431;-74
2023/08/08 02:40:42;;;;;;;;;5.00;3.67;;;;;17.05;99.77;101687.03;5078700;27;45343;-74
2023/08/08 02:43:09;;;;;;;;;5.00;3.00;;;;;17.01;100.00;101675.69;5096830;27;45307;-74
2023/08/08 02:45:34;;;;;;;;;5.00;3.67;;;;;16.96;100.00;101691.13;5085264;27;45367;-74
2023/08/08 02:47:59;;;;;;;;;3.67;3.00;;;;;16.83;100.00;101663.41;5066412;27;49189;-74
2023/08/08 02:50:25;;;;;;;;;4.00;3.67;;;;;16.89;100.00;101678.22;5091151;27;45491;-74
2023/08/08 02:52:50;;;;;;;;;3.00;3.00;;;;;16.86;100.00;101689.09;5096115;27;45291;-74
2023/08/08 02:55:15;;;;;;;;;4.00;2.00;;;;;16.78;100.00;101686.88;5071442;27;47365;-74
2023/08/08 02:57:41;;;;;;;;;4.00;3.33;;;;;16.79;100.00;101701.94;5080081;27;45288;-74
2023/08/08 03:00:08;;;;;;;;;3.00;3.00;;;;;16.77;100.00;101695.84;5080150;27;45297;-74
2023/08/08 03:02:33;;;;;;;;;3.00;3.00;;;;;16.75;100.00;101705.78;5090284;27;45299;-74
2023/08/08 03:04:59;;;;;;;;;4.00;2.33;;;;;16.74;100.00;101696.03;5093040;27;45355;-74
2023/08/08 03:07:24;;;;;;;;;3.67;3.67;;;;;16.73;100.00;101690.75;5087502;27;45571;-74
2023/08/08 03:09:49;;;;;;;;;3.00;3.00;;;;;16.68;100.00;101696.41;5083288;27;48117;-74
2023/08/08 03:12:14;;;;;;;;;4.00;4.00;;;;;16.66;100.00;101693.78;5066119;27;50260;-74
2023/08/08 03:14:40;;;;;;;;;8.33;4.00;;;;;16.69;100.00;101694.59;5091768;27;45400;-74
2023/08/08 03:17:05;;;;;;;;;2.00;2.00;;;;;16.71;100.00;101706.91;5084015;27;45451;-73
2023/08/08 03:19:31;;;;;;;;;5.00;4.00;;;;;16.59;100.00;101683.53;5108718;27;45936;-73
2023/08/08 03:21:57;;;;;;;;;1.33;1.33;;;;;16.66;100.00;101690.25;5083965;27;45497;-74
2023/08/08 03:24:22;;;;;;;;;5.00;3.00;;;;;16.61;100.00;101682.53;5081257;27;47233;-74
2023/08/08 03:26:48;;;;;;;;;4.33;2.00;;;;;16.59;100.00;101675.53;5082179;27;45508;-74
2023/08/08 03:29:13;;;;;;;;;3.67;3.33;;;;;16.59;100.00;101687.09;5091251;27;45284;-74
2023/08/08 03:31:38;;;;;;;;;5.67;4.00;;;;;16.58;100.00;101701.41;5069887;27;45552;-74
2023/08/08 03:34:04;;;;;;;;;4.00;4.00;;;;;16.56;100.00;101705.09;5093250;27;47035;-74
2023/08/08 03:36:30;;;;;;;;;4.00;4.00;;;;;16.51;100.00;101694.66;5093795;27;45477;-74
2023/08/08 03:38:55;;;;;;;;;5.33;3.00;;;;;16.53;100.00;101698.09;5092148;27;45313;-74
2023/08/08 03:41:20;;;;;;;;;3.67;3.67;;;;;16.53;100.00;101697.22;5095745;27;45473;-74
2023/08/08 03:43:45;;;;;;;;;5.00;3.67;;;;;16.52;100.00;101707.03;5091508;27;46538;-74
2023/08/08 03:46:11;;;;;;;;;3.00;3.00;;;;;16.53;100.00;101707.91;5082433;27;45276;-74
2023/08/08 03:48:37;;;;;;;;;4.00;4.00;;;;;16.51;100.00;101708.00;5081631;27;45416;-74
2023/08/08 03:51:02;;;;;;;;;3.00;3.00;;;;;16.43;100.00;101712.06;5093231;27;45515;-74
2023/08/08 03:53:28;;;;;;;;;5.00;5.00;;;;;16.50;100.00;101713.44;5086340;27;46116;-74
2023/08/08 03:55:53;;;;;;;;;2.33;2.00;;;;;16.48;100.00;101715.34;5079751;27;45483;-74
2023/08/08 03:58:19;;;;;;;;;2.00;2.00;;;;;16.43;100.00;101709.38;5082002;27;45497;-74
2023/08/08 04:00:46;;;;;;;;;4.00;4.00;;;;;16.42;100.00;101713.03;5077359;27;45359;-74
2023/08/08 04:03:15;;;;;;;;;4.67;4.00;;;;;16.44;100.00;101708.44;5083474;27;46935;-74
2023/08/08 04:05:46;;;;;;;;;4.33;4.33;;;;;16.43;100.00;101706.72;5076064;27;45319;-74
2023/08/08 04:08:11;;;;;;;;;3.33;3.00;;;;;16.41;100.00;101704.16;5092116;27;45631;-74
2023/08/08 04:10:36;;;;;;;;;4.00;2.67;;;;;16.37;100.00;101707.06;5085895;27;45613;-74
2023/08/08 04:13:02;;;;;;;;;5.00;3.67;;;;;16.31;100.00;101696.75;5082348;27;45418;-74
2023/08/08 04:15:27;;;;;;;;;4.00;4.00;;;;;16.37;100.00;101707.06;5085454;27;45805;-74
2023/08/08 04:17:52;;;;;;;;;5.00;4.00;;;;;16.33;100.00;101706.38;5075078;27;45463;-74
2023/08/08 04:20:17;;;;;;;;;3.67;3.67;;;;;16.39;100.00;101711.38;5098000;27;45327;-74
2023/08/08 04:22:43;;;;;;;;;5.33;4.00;;;;;16.38;100.00;101703.47;5085235;27;45437;-74
2023/08/08 04:25:08;;;;;;;;;4.00;4.00;;;;;16.40;100.00;101706.88;5076159;27;54885;-74
2023/08/08 04:27:33;;;;;;;;;3.33;3.33;;;;;16.34;100.00;101696.56;5095276;27;45697;-74
2023/08/08 04:29:59;;;;;;;;;4.33;3.00;;;;;16.32;100.00;101691.31;5088630;27;45426;-74
2023/08/08 04:32:24;;;;;;;;;4.00;4.00;;;;;16.36;100.00;101705.38;5097571;27;46255;-74
2023/08/08 04:34:50;;;;;;;;;5.00;4.00;;;;;16.36;100.00;101706.19;5091418;27;45375;-74
2023/08/08 04:37:15;;;;;;;;;5.00;3.00;;;;;16.37;100.00;101715.06;5091162;27;45561;-74
2023/08/08 04:39:40;;;;;;;;;4.00;3.00;;;;;16.36;100.00;101700.03;5087212;27;51085;-74
2023/08/08 04:42:06;;;;;;;;;5.33;3.00;;;;;16.40;100.00;101720.25;5100533;27;46335;-74
2023/08/08 04:44:31;;;;;;;;;2.00;2.00;;;;;16.40;100.00;101717.56;5086056;27;45536;-74
2023/08/08 04:46:57;;;;;;;;;4.00;4.00;;;;;16.41;100.00;101719.31;5095840;27;45410;-74
2023/08/08 04:49:22;;;;;;;;;3.00;2.00;;;;;16.38;100.00;101706.13;5100978;27;45468;-74
2023/08/08 04:51:48;;;;;;;;;3.00;3.00;;;;;16.44;100.00;101724.47;5081853;27;46114;-74
2023/08/08 04:54:13;;;;;;;;;4.67;3.67;;;;;16.46;100.00;101707.41;5072950;27;45350;-73
2023/08/08 04:56:38;;;;;;;;;4.00;3.00;;;;;16.49;100.00;101707.22;5090447;27;45200;-74
2023/08/08 04:59:04;;;;;;;;;3.33;3.33;;;;;16.52;100.00;101707.03;5090844;27;45382;-74
2023/08/08 05:01:29;;;;;;;;;3.00;3.00;;;;;16.54;100.00;101698.97;5091514;27;45433;-74
2023/08/08 05:03:54;;;;;;;;;6.00;5.00;;;;;16.54;100.00;101701.63;5098971;27;45285;-74
2023/08/08 05:06:20;;;;;;;;;7.00;5.67;;;;;16.60;100.00;101704.84;5097944;27;44847;-74
2023/08/08 05:08:45;;;;;;;;;4.00;3.00;;;;;16.61;100.00;101698.56;5077994;27;45277;-74
2023/08/08 05:11:10;;;;;;;;;3.67;2.67;;;;;16.62;100.00;101696.75;5068762;27;49807;-74
2023/08/08 05:13:36;;;;;;;;;7.00;4.33;;;;;16.70;100.00;101691.81;5097125;27;45344;-74
2023/08/08 05:16:01;;;;;;;;;4.00;4.00;;;;;16.72;100.00;101689.06;5096036;27;45479;-74
2023/08/08 05:18:26;;;;;;;;;7.33;4.67;;;;;16.68;100.00;101685.72;5082022;27;45312;-74
2023/08/08 05:20:52;;;;;;;;;4.00;3.33;;;;;16.65;100.00;101692.06;5083752;27;45541;-74
2023/08/08 05:23:17;;;;;;;;;3.33;3.00;;;;;16.70;100.00;101690.94;5084617;27;45452;-74
2023/08/08 05:25:42;;;;;;;;;2.67;2.00;;;;;16.67;100.00;101695.53;5096939;27;45338;-74
2023/08/08 05:28:08;;;;;;;;;4.00;4.00;;;;;16.68;100.00;101693.72;5092985;27;45390;-74
2023/08/08 05:30:33;;;;;;;;;5.67;3.33;;;;;16.70;100.00;101705.16;5069508;27;46752;-73
2023/08/08 05:32:58;;;;;;;;;2.33;2.33;;;;;16.73;100.00;101702.31;5095102;27;45426;-74
2023/08/08 05:35:24;;;;;;;;;5.00;3.00;;;;;16.72;100.00;101678.38;5086887;27;45476;-74
2023/08/08 05:37:49;;;;;;;;;2.00;2.00;;;;;16.83;100.00;101695.47;5075110;27;45745;-74
2023/08/08 05:40:14;;;;;;;;;2.00;2.00;;;;;16.89;100.00;101691.56;5091182;27;45426;-74
2023/08/08 05:42:40;;;;;;;;;4.00;3.00;;;;;16.91;100.00;101693.22;5087843;27;45539;-74
2023/08/08 05:45:06;;;;;;;;;5.00;2.00;;;;;17.01;100.00;101697.09;5067877;27;45326;-74
2023/08/08 05:47:32;;;;;;;;;3.00;3.00;;;;;17.06;100.00;101688.78;5093325;27;45397;-74
2023/08/08 05:49:57;;;;;;;;;4.00;4.00;;;;;17.15;100.00;101696.22;5077822;27;48023;-74
2023/08/08 05:52:22;;;;;;;;;2.00;2.00;;;;;17.14;100.00;101695.41;5092542;27;45461;-74
2023/08/08 05:54:48;;;;;;;;;4.67;3.00;;;;;17.26;100.00;101708.97;5090020;27;45747;-74
2023/08/08 05:57:13;;;;;;;;;4.00;4.00;;;;;17.28;100.00;101709.72;5096450;27;45596;-74
2023/08/08 05:59:38;;;;;;;;;3.00;3.00;;;;;17.30;100.00;101711.38;5097619;27;46482;-74
2023/08/08 06:02:04;;;;;;;;;5.67;2.33;;;;;17.32;99.65;101704.09;5096798;27;45253;-74
2023/08/08 06:04:29;;;;;;;;;3.67;3.67;;;;;17.41;100.00;101711.56;5090631;27;45261;-74
2023/08/08 06:06:55;;;;;;;;;2.00;2.00;;;;;17.52;100.00;101717.13;5086653;27;45641;-74
2023/08/08 06:09:20;;;;;;;;;3.67;3.67;;;;;17.61;100.00;101726.41;5077937;27;57625;-74
2023/08/08 06:11:45;;;;;;;;;3.00;2.33;;;;;17.65;97.62;101720.78;5085939;27;45258;-74
2023/08/08 06:14:11;;;;;;;;;1.67;1.67;;;;;17.64;98.66;101715.50;5081751;27;45613;-74
2023/08/08 06:16:36;;;;;;;;;3.33;2.33;;;;;17.68;95.46;101722.41;5083008;27;45336;-74
2023/08/08 06:19:02;;;;;;;;;2.67;2.67;;;;;17.76;97.01;101728.16;5093024;27;45429;-74
2023/08/08 06:21:27;;;;;;;;;2.00;2.00;;;;;17.74;94.26;101726.50;5085631;27;45334;-74
2023/08/08 06:23:54;;;;;;;;;3.00;2.00;;;;;17.79;94.80;101735.13;5092853;27;45522;-74
2023/08/08 06:26:21;;;;;;;;;2.33;2.33;;;;;17.79;93.64;101727.97;5079924;27;45564;-74
2023/08/08 06:28:47;;;;;;;;;2.00;2.00;;;;;17.79;92.25;101724.41;5081348;27;45526;-74
2023/08/08 06:31:12;;;;;;;;;3.33;3.00;;;;;17.84;93.84;101735.69;5075899;27;45252;-74
2023/08/08 06:33:38;;;;;;;;;5.00;2.00;;;;;17.84;94.07;101733.00;5099540;27;45311;-74
2023/08/08 06:36:03;;;;;;;;;5.33;2.33;;;;;17.83;100.00;101729.50;5086440;27;45527;-74
2023/08/08 06:38:33;;;;;;;;;3.00;3.00;;;;;17.94;93.17;101744.84;5082018;27;45278;-74
2023/08/08 06:40:58;;;;;;;;;3.00;3.00;;;;;17.95;91.74;101730.53;5077034;27;45500;-74
2023/08/08 06:43:24;;;;;;;;;2.00;2.00;;;;;18.01;91.57;101730.13;5069663;28;45455;-75
2023/08/08 06:45:49;;;;;;;;;2.33;1.00;;;;;18.12;90.56;101727.66;5068187;27;45461;-74
2023/08/08 06:48:14;;;;;;;;;2.00;2.00;;;;;18.02;86.33;101722.03;5095710;27;46762;-75
2023/08/08 06:50:40;;;;;;;;;2.00;2.00;;;;;18.11;92.33;101732.13;5090646;27;45467;-75
2023/08/08 06:53:05;;;;;;;;;2.00;2.00;;;;;18.15;91.03;101724.78;5087038;27;45609;-74
2023/08/08 06:55:30;;;;;;;;;1.00;1.00;;;;;18.16;91.15;101724.66;5080315;27;45428;-74
2023/08/08 06:57:56;;;;;;;;;2.33;2.00;;;;;18.18;88.69;101720.09;5094678;27;45457;-74
2023/08/08 07:00:21;;;;;;;;;2.33;2.00;;;;;18.24;86.79;101721.50;5069189;27;45928;-74
2023/08/08 07:02:46;;;;;;;;;2.00;2.00;;;;;18.31;87.51;101713.94;5098386;27;46092;-76
2023/08/08 07:05:12;;;;;;;;;2.00;2.00;;;;;18.43;83.21;101711.31;5095633;27;45417;-74
2023/08/08 07:07:38;;;;;;;;;2.33;2.33;;;;;18.48;83.30;101719.06;5091674;27;55242;-74
2023/08/08 07:10:03;;;;;;;;;1.67;1.67;;;;;18.46;82.58;101721.81;5090139;27;45432;-74
2023/08/08 07:12:29;;;;;;;;;1.00;1.00;;;;;18.39;82.09;101709.78;5093506;27;45456;-74
2023/08/08 07:14:54;;;;;;;;;5.00;2.00;;;;;18.33;87.48;101693.25;5093419;27;45580;-74
2023/08/08 07:17:20;;;;;;;;;1.00;1.00;;;;;18.50;89.71;101717.16;5097799;27;45495;-74
2023/08/08 07:19:45;;;;;;;;;2.00;2.00;;;;;18.53;85.31;101723.19;5096830;27;45367;-74
2023/08/08 07:22:11;;;;;;;;;2.00;2.00;;;;;18.50;83.17;101718.03;5074267;27;45498;-74
2023/08/08 07:24:38;;;;;;;;;3.00;1.67;;;;;18.45;83.51;101713.91;5092786;27;45459;-74
2023/08/08 07:27:04;;;;;;;;;3.67;2.00;;;;;18.42;83.35;101700.72;5082595;27;46045;-74
2023/08/08 07:29:29;;;;;;;;;1.33;1.33;;;;;18.44;87.56;101694.28;5080149;28;45311;-74
2023/08/08 07:31:54;;;;;;;;;1.00;1.00;;;;;18.67;83.51;101704.38;5088136;27;47512;-74
2023/08/08 07:34:20;;;;;;;;;1.00;1.00;;;;;18.80;82.64;101691.00;5082395;27;50779;-74
2023/08/08 07:36:49;;;;;;;;;0.67;0.67;;;;;19.04;84.13;101708.09;5082987;27;46120;-74
2023/08/08 07:39:14;;;;;;;;;1.00;1.00;;;;;19.17;81.53;101695.56;5081690;27;45319;-75
2023/08/08 07:41:40;;;;;;;;;5.67;2.33;;;;;19.39;80.25;101702.16;5094840;27;45350;-75
2023/08/08 07:44:05;;;;;;;;;1.00;1.00;;;;;19.51;76.28;101701.31;5101425;27;45282;-75
2023/08/08 07:46:32;;;;;;;;;4.00;2.00;;;;;19.60;75.67;101704.22;5071955;27;47000;-74
2023/08/08 07:48:59;;;;;;;;;1.00;1.00;;;;;19.71;72.37;101706.13;5091467;27;45500;-75
2023/08/08 07:51:25;;;;;;;;;0.67;0.67;;;;;19.79;73.12;101702.91;5103669;27;45323;-75
2023/08/08 07:53:50;;;;;;;;;2.33;0.67;;;;;19.88;70.60;101696.88;5091483;27;45434;-75
2023/08/08 07:56:15;;;;;;;;;3.33;1.67;;;;;20.00;70.41;101707.59;5085979;27;47672;-75
2023/08/08 07:58:41;;;;;;;;;3.67;2.67;;;;;20.11;71.78;101691.56;5091890;27;45446;-75
2023/08/08 08:01:06;;;;;;;;;1.00;1.00;;;;;20.34;70.82;101705.19;5086223;27;45505;-75
2023/08/08 08:03:31;;;;;;;;;1.00;0.67;;;;;20.52;70.48;101703.81;5093066;27;57634;-74
2023/08/08 08:05:57;;;;;;;;;1.00;1.00;;;;;20.69;71.85;101700.72;5089119;27;46320;-74
2023/08/08 08:08:24;;;;;;;;;2.00;1.00;;;;;20.73;67.55;101704.91;5093372;27;45279;-75
2023/08/08 08:10:50;;;;;;;;;1.00;1.00;;;;;20.68;67.33;101699.03;5090612;27;45278;-74
2023/08/08 08:13:16;;;;;;;;;1.67;1.00;;;;;20.65;69.45;101680.41;5083874;27;45355;-75
2023/08/08 08:15:41;;;;;;;;;1.00;1.00;;;;;20.81;67.26;101694.41;5086814;27;46744;-74
2023/08/08 08:18:07;;;;;;;;;3.67;1.00;;;;;20.96;67.57;101701.34;5109736;27;45457;-75
2023/08/08 08:20:32;;;;;;;;;1.00;1.00;;;;;21.08;65.51;101694.13;5092273;27;45526;-75
2023/08/08 08:22:57;;;;;;;;;0.00;0.00;;;;;21.21;65.46;101687.72;5086359;27;45383;-75
2023/08/08 08:25:23;;;;;;;;;0.67;0.67;;;;;21.35;64.39;101683.09;5086325;27;46161;-75
2023/08/08 08:27:48;;;;;;;;;0.33;0.00;;;;;21.41;64.60;101677.25;5088708;27;45349;-74
2023/08/08 08:30:13;;;;;;;;;3.00;1.00;;;;;21.38;64.05;101670.28;5066989;28;45432;-75
2023/08/08 08:32:40;;;;;;;;;0.67;0.67;;;;;21.57;66.94;101677.75;5096828;27;45475;-74
2023/08/08 08:35:06;;;;;;;;;3.00;1.67;;;;;21.78;65.61;101687.69;5089221;27;45561;-75
2023/08/08 08:37:32;;;;;;;;;1.00;0.00;;;;;21.86;64.79;101692.44;5085489;27;45438;-75
2023/08/08 08:39:58;;;;;;;;;2.33;1.00;;;;;21.91;65.63;101676.81;5086796;27;45280;-75
2023/08/08 08:42:24;;;;;;;;;1.00;1.00;;;;;21.88;66.39;101668.09;5084384;27;45344;-75
2023/08/08 08:44:51;;;;;;;;;3.67;2.00;;;;;21.82;62.61;101688.28;5080546;27;45466;-75
2023/08/08 08:47:19;;;;;;;;;2.00;2.00;;;;;21.88;66.42;101686.94;5078262;27;45293;-75
2023/08/08 08:49:45;;;;;;;;;1.00;1.00;;;;;21.91;62.12;101689.41;5081580;28;45347;-74
2023/08/08 08:52:11;;;;;;;;;3.00;1.00;;;;;22.10;65.67;101690.50;5096530;27;45391;-74
2023/08/08 08:54:37;;;;;;;;;1.00;1.00;;;;;22.35;64.08;101689.31;5072757;28;47304;-75
2023/08/08 08:57:03;;;;;;;;;2.00;1.00;;;;;22.36;61.63;101674.03;5072455;27;45391;-75
2023/08/08 08:59:28;;;;;;;;;2.00;1.00;;;;;22.32;58.00;101678.81;5075369;27;45469;-75
2023/08/08 09:01:53;;;;;;;;;1.33;1.00;;;;;22.50;58.44;101693.47;5081551;27;52238;-75
2023/08/08 09:04:21;;;;;;;;;3.00;1.00;;;;;22.57;59.62;101688.44;5081562;27;46180;-75
2023/08/08 09:06:47;;;;;;;;;0.00;0.00;;;;;22.62;59.49;101692.44;5079560;27;45443;-74
2023/08/08 09:09:15;;;;;;;;;2.67;1.00;;;;;22.51;59.67;101675.47;5100792;27;45392;-75
2023/08/08 09:11:43;;;;;;;;;0.00;0.00;;;;;22.70;58.07;101678.34;5086077;27;45313;-74
2023/08/08 09:14:18;;;;;;;;;1.00;1.00;;;;;22.80;56.72;101687.41;5081875;27;45327;-74
2023/08/08 09:16:46;;;;;;;;;1.00;1.00;;;;;22.93;57.98;101690.75;5065914;27;45284;-74
2023/08/08 09:19:12;;;;;;;;;0.33;0.33;;;;;22.88;57.77;101684.88;5074773;27;45537;-75
2023/08/08 09:21:37;;;;;;;;;1.00;1.00;;;;;22.86;58.19;101677.91;5080346;28;45500;-75
2023/08/08 09:24:03;;;;;;;;;0.00;0.00;;;;;22.78;57.89;101690.19;5081074;27;46294;-75
2023/08/08 09:26:28;;;;;;;;;0.00;0.00;;;;;22.82;56.65;101683.56;5080541;27;45370;-75
2023/08/08 09:28:54;;;;;;;;;0.00;0.00;;;;;22.97;57.32;101683.28;5080828;27;45346;-75
2023/08/08 09:31:19;;;;;;;;;1.00;1.00;;;;;23.09;56.75;101672.28;5086226;27;45470;-75
2023/08/08 09:33:48;;;;;;;;;1.00;1.00;;;;;23.14;57.87;101678.13;5080853;27;45524;-75
2023/08/08 09:36:15;;;;;;;;;2.00;2.00;;;;;23.21;59.24;101665.81;5067218;27;45470;-75
2023/08/08 09:38:41;;;;;;;;;1.00;1.00;;;;;23.14;57.60;101658.38;5084954;27;45482;-75
2023/08/08 09:41:06;;;;;;;;;3.00;1.33;;;;;23.21;57.68;101649.63;5063752;28;45474;-75
2023/08/08 09:43:32;;;;;;;;;0.33;0.33;;;;;23.34;57.24;101647.56;5097256;27;45469;-75
2023/08/08 09:45:57;;;;;;;;;2.67;2.67;;;;;23.51;56.13;101656.91;5084699;27;45594;-75
2023/08/08 09:48:28;;;;;;;;;3.00;1.67;;;;;23.51;56.29;101653.34;5094190;27;45493;-75
2023/08/08 09:50:54;;;;;;;;;0.00;0.00;;;;;23.54;54.66;101651.25;5087130;27;45535;-75
2023/08/08 09:53:20;;;;;;;;;2.00;2.00;;;;;23.54;54.99;101650.38;5090472;27;45579;-75
2023/08/08 09:55:46;;;;;;;;;1.00;1.00;;;;;23.60;55.11;101648.00;5081005;27;45296;-75
2023/08/08 09:58:13;;;;;;;;;1.00;1.00;;;;;23.61;55.20;101640.75;5084151;27;45366;-74
2023/08/08 10:00:39;;;;;;;;;1.33;1.00;;;;;23.68;53.92;101639.22;5073738;28;45427;-74
2023/08/08 10:03:05;;;;;;;;;2.33;1.00;;;;;23.70;53.92;101635.38;5082399;27;45379;-74
2023/08/08 10:05:31;;;;;;;;;1.00;1.00;;;;;23.78;54.05;101635.56;5081542;27;45378;-74
2023/08/08 10:07:56;;;;;;;;;1.00;0.00;;;;;24.00;54.99;101639.91;5085927;27;45347;-74
2023/08/08 10:10:22;;;;;;;;;1.00;1.00;;;;;24.20;55.11;101648.94;5090194;27;45255;-75
2023/08/08 10:12:48;;;;;;;;;2.33;1.00;;;;;24.29;54.91;101626.47;5087483;27;46173;-75
2023/08/08 10:15:13;;;;;;;;;5.00;1.00;;;;;24.42;53.01;101634.28;5095685;27;45288;-75
2023/08/08 10:17:40;;;;;;;;;2.00;1.00;;;;;24.59;52.23;101637.16;5094079;27;45223;-75
2023/08/08 10:20:11;;;;;;;;;1.00;1.00;;;;;24.75;53.12;101620.34;5101691;27;45292;-74
2023/08/08 10:22:41;;;;;;;;;3.00;1.00;;;;;24.93;53.23;101631.34;5084949;27;45424;-75
2023/08/08 10:25:08;;;;;;;;;1.00;1.00;;;;;24.98;52.29;101627.19;5086076;27;45554;-75
2023/08/08 10:27:35;;;;;;;;;1.00;1.00;;;;;24.99;52.17;101622.63;5085702;27;45513;-74
2023/08/08 10:30:12;;;;;;;;;2.00;1.00;;;;;25.10;52.31;101627.88;5084863;27;45368;-74
2023/08/08 10:32:48;;;;;;;;;1.00;1.00;;;;;25.19;51.78;101627.88;5062621;28;48488;-74
2023/08/08 10:35:14;;;;;;;;;1.00;1.00;;;;;25.27;52.02;101611.72;5082341;27;45443;-75
2023/08/08 10:37:40;;;;;;;;;2.00;2.00;;;;;25.29;52.58;101598.88;5082634;27;45399;-75
2023/08/08 10:40:07;;;;;;;;;0.33;0.33;;;;;25.59;52.46;101627.59;5088286;27;45471;-75
2023/08/08 10:42:42;;;;;;;;;0.67;0.67;;;;;25.56;51.67;101627.91;5082404;28;45403;-75
2023/08/08 10:45:13;;;;;;;;;0.00;0.00;;;;;25.60;52.88;101617.63;5077418;28;45481;-75
2023/08/08 10:47:40;;;;;;;;;1.00;1.00;;;;;25.48;48.49;101614.22;5101179;27;45233;-74
2023/08/08 10:50:07;;;;;;;;;0.33;0.33;;;;;25.35;52.03;101614.56;5084580;27;45487;-74
2023/08/08 10:52:54;;;;;;;;;0.00;0.00;;;;;25.36;51.55;101605.41;5085021;27;46286;-74
2023/08/08 10:55:27;;;;;;;;;1.00;1.00;;;;;25.40;51.32;101616.81;5093171;27;45357;-74
2023/08/08 10:58:06;;;;;;;;;2.00;2.00;;;;;25.42;52.67;101616.66;5085581;27;45323;-74
2023/08/08 11:00:33;;;;;;;;;1.00;1.00;;;;;25.36;50.93;101616.25;5084733;27;45566;-74
2023/08/08 11:02:59;;;;;;;;;1.33;1.00;;;;;25.28;50.80;101610.72;5084007;27;46394;-74
2023/08/08 11:05:27;;;;;;;;;2.00;2.00;;;;;25.20;50.95;101612.44;5083107;28;45329;-74
2023/08/08 11:07:53;;;;;;;;;1.00;1.00;;;;;25.06;49.47;101602.97;5081575;27;45393;-74
2023/08/08 11:10:18;;;;;;;;;1.00;1.00;;;;;25.05;49.23;101589.56;5101835;27;45442;-74
2023/08/08 11:12:56;;;;;;;;;1.00;1.00;;;;;25.23;50.39;101602.19;5089740;27;46036;-74
2023/08/08 11:15:21;;;;;;;;;2.00;2.00;;;;;25.36;48.57;101591.88;5091624;28;45348;-75
2023/08/08 11:17:48;;;;;;;;;1.00;1.00;;;;;25.34;50.80;101595.72;5090389;27;45488;-76